createdAt,value
2023-03-15T00:12:29.261Z,10.68
2023-03-15T00:27:31.501Z,10.93
2023-03-15T00:42:33.722Z,10.63
2023-03-15T00:57:35.948Z,10.58
2023-03-15T01:12:38.190Z,10
2023-03-15T01:27:40.435Z,9.16
2023-03-15T01:42:42.773Z,8.47
2023-03-15T01:57:45.067Z,8.43
2023-03-15T02:12:47.292Z,7.82
2023-03-15T02:27:49.575Z,7.82
2023-03-15T02:42:51.907Z,7.11
2023-03-15T02:57:54.204Z,6.72
2023-03-15T03:12:56.503Z,6.56
2023-03-15T03:27:58.794Z,6.21
2023-03-15T03:43:01.096Z,5.57
2023-03-15T03:58:03.305Z,5.43
2023-03-15T04:13:05.573Z,5.19
2023-03-15T04:28:07.865Z,5.14
2023-03-15T04:43:10.130Z,4.8
2023-03-15T04:58:12.460Z,4.35
2023-03-15T05:13:14.822Z,4.56
2023-03-15T05:28:17.073Z,4.31
2023-03-15T05:43:19.521Z,3.93
2023-03-15T05:58:21.855Z,4.29
2023-03-15T06:13:24.121Z,4.02
2023-03-15T06:28:26.422Z,3.81
2023-03-15T06:43:28.710Z,3.56
2023-03-15T06:58:30.971Z,3.46
2023-03-15T07:13:33.191Z,2.98
2023-03-15T07:28:35.791Z,3.48
2023-03-15T07:43:38.057Z,3.25
2023-03-15T07:58:40.313Z,3.15
2023-03-15T08:13:42.536Z,2.55
2023-03-15T08:28:44.938Z,2.35
2023-03-15T08:43:47.213Z,2.24
2023-03-15T08:58:49.468Z,2.17
2023-03-15T09:13:51.705Z,2.1
2023-03-15T09:28:53.940Z,1.57
2023-03-15T09:43:56.203Z,1.88
2023-03-15T09:58:58.630Z,1.61
2023-03-15T10:14:00.853Z,1.54
2023-03-15T10:29:03.068Z,1
2023-03-15T10:44:05.520Z,1.41
2023-03-15T10:59:12.716Z,1.15
2023-03-15T11:14:15.326Z,1.14
2023-03-15T11:29:17.533Z,1.24
2023-03-15T11:44:19.900Z,0.85
2023-03-15T11:59:22.141Z,0.84
2023-03-15T12:14:24.401Z,0.98
2023-03-15T12:29:26.618Z,0.59
2023-03-15T12:44:29.013Z,0.75
2023-03-15T12:59:31.251Z,0.84
2023-03-15T13:14:33.538Z,0.53
2023-03-15T13:29:35.735Z,0.4
2023-03-15T13:44:37.955Z,0.35
2023-03-15T13:59:40.973Z,0.42
2023-03-15T14:14:43.270Z,0.07
2023-03-15T14:29:45.532Z,0.35
2023-03-15T14:44:47.844Z,0.18
2023-03-15T14:59:50.066Z,0.36
2023-03-15T15:14:52.303Z,1.03
2023-03-15T15:29:54.557Z,2.15
2023-03-15T15:44:56.789Z,3.01
2023-03-15T15:59:59.021Z,2.12
2023-03-15T16:15:01.471Z,2.42
2023-03-15T16:30:03.674Z,3.79
2023-03-15T16:45:05.941Z,4.13
2023-03-15T17:00:08.174Z,3.38
2023-03-15T17:15:10.463Z,3.18
2023-03-15T17:30:12.985Z,4.24
2023-03-15T17:45:15.435Z,5.12
2023-03-15T18:00:17.720Z,6.95
2023-03-15T18:15:19.934Z,6.45
2023-03-15T18:30:22.212Z,6.38
2023-03-15T18:45:24.744Z,7.33
2023-03-15T19:00:27.106Z,7.39
2023-03-15T19:15:29.378Z,7.57
2023-03-15T19:30:31.694Z,7.99
2023-03-15T19:45:33.983Z,7.62
2023-03-15T20:00:36.385Z,8.09
2023-03-15T20:15:38.757Z,8.04
2023-03-15T20:30:43.241Z,8.31
2023-03-15T20:45:46.538Z,7.63
2023-03-15T21:00:48.956Z,8.81
2023-03-15T21:15:51.245Z,9.38
2023-03-15T21:30:53.534Z,9.57
2023-03-15T21:45:56.017Z,9.85
2023-03-15T22:00:58.451Z,10.44
2023-03-15T22:16:00.804Z,10.39
2023-03-15T22:31:03.119Z,10.12
2023-03-15T22:46:05.464Z,11.27
2023-03-15T23:01:07.866Z,11.4
2023-03-15T23:16:10.174Z,12.14
2023-03-15T23:31:12.516Z,12.39
2023-03-15T23:46:14.867Z,11.2
